createdAt,value
2019-02-28T00:01:05.549Z,3.62
2019-02-28T00:03:34.578Z,3.35
2019-02-28T00:06:03.497Z,3.22
2019-02-28T00:08:32.311Z,3.01
2019-02-28T00:11:02.128Z,2.90
2019-02-28T00:13:31.970Z,2.85
2019-02-28T00:16:03.454Z,3.13
2019-02-28T00:18:31.449Z,3.37
2019-02-28T00:21:06.075Z,3.06
2019-02-28T00:23:31.269Z,2.87
2019-02-28T00:26:00.159Z,2.69
2019-02-28T00:28:29.120Z,2.73
2019-02-28T00:30:58.048Z,2.72
2019-02-28T00:33:26.970Z,2.59
2019-02-28T00:35:55.960Z,2.66
2019-02-28T00:38:29.456Z,2.52
2019-02-28T00:40:55.608Z,2.55
2019-02-28T00:43:25.150Z,2.53
2019-02-28T00:45:54.746Z,2.57
2019-02-28T00:48:23.626Z,2.84
2019-02-28T00:50:52.473Z,2.81
2019-02-28T00:53:21.374Z,2.69
2019-02-28T00:55:50.384Z,2.50
2019-02-28T00:58:19.429Z,2.38
2019-02-28T01:00:48.331Z,2.50
2019-02-28T01:03:17.112Z,2.37
2019-02-28T01:05:46.116Z,2.98
2019-02-28T01:08:15.096Z,2.68
2019-02-28T01:10:44.048Z,2.50
2019-02-28T01:13:12.972Z,2.35
2019-02-28T01:15:44.809Z,2.22
2019-02-28T01:18:12.619Z,2.26
2019-02-28T01:20:41.649Z,2.40
2019-02-28T01:23:10.658Z,2.34
2019-02-28T01:25:40.171Z,2.39
2019-02-28T01:28:09.897Z,2.88
2019-02-28T01:30:40.648Z,2.64
2019-02-28T01:33:09.977Z,2.92
2019-02-28T01:35:40.785Z,2.82
2019-02-28T01:38:09.515Z,2.55
2019-02-28T01:40:38.464Z,2.39
2019-02-28T01:43:07.368Z,2.20
2019-02-28T01:45:36.384Z,2.15
2019-02-28T01:48:05.386Z,2.08
2019-02-28T01:50:34.329Z,1.93
2019-02-28T01:53:03.564Z,1.84
2019-02-28T01:55:32.526Z,1.73
2019-02-28T01:58:01.444Z,1.77
2019-02-28T02:00:30.445Z,1.95
2019-02-28T02:02:59.399Z,1.84
2019-02-28T02:05:28.385Z,1.73
2019-02-28T02:07:57.191Z,1.75
2019-02-28T02:10:26.123Z,1.78
2019-02-28T02:12:55.138Z,1.84
2019-02-28T02:15:23.921Z,1.84
2019-02-28T02:17:52.715Z,1.94
2019-02-28T02:20:23.460Z,1.89
2019-02-28T02:22:52.592Z,1.85
2019-02-28T02:25:21.583Z,1.89
2019-02-28T02:27:53.422Z,1.76
2019-02-28T02:30:22.326Z,1.57
2019-02-28T02:32:51.209Z,1.48
2019-02-28T02:35:20.263Z,1.48
2019-02-28T02:37:49.211Z,1.44
2019-02-28T02:40:18.166Z,1.39
2019-02-28T02:42:48.824Z,1.45
2019-02-28T02:45:17.614Z,1.36
2019-02-28T02:47:46.532Z,1.35
2019-02-28T02:50:14.713Z,1.31
2019-02-28T02:52:43.847Z,1.30
2019-02-28T02:55:13.402Z,1.31
2019-02-28T02:57:42.511Z,1.25
2019-02-28T03:00:15.165Z,1.20
2019-02-28T03:02:44.172Z,1.20
2019-02-28T03:05:14.919Z,1.21
2019-02-28T03:07:44.106Z,1.29
2019-02-28T03:10:17.329Z,1.44
2019-02-28T03:12:45.201Z,1.62
2019-02-28T03:15:15.322Z,1.71
2019-02-28T03:17:47.309Z,1.61
2019-02-28T03:20:16.013Z,1.49
2019-02-28T03:22:44.927Z,1.37
2019-02-28T03:25:14.289Z,1.31
2019-02-28T03:27:43.127Z,1.23
2019-02-28T03:30:26.015Z,1.19
2019-02-28T03:32:45.248Z,1.36
2019-02-28T03:35:14.111Z,1.54
2019-02-28T03:37:42.988Z,1.49
2019-02-28T03:40:12.295Z,1.21
2019-02-28T03:42:41.274Z,1.07
2019-02-28T03:45:10.572Z,0.98
2019-02-28T03:47:39.527Z,0.99
2019-02-28T03:50:09.056Z,1.03
2019-02-28T03:52:42.247Z,1.26
2019-02-28T03:55:09.245Z,1.37
2019-02-28T03:57:38.178Z,1.50
2019-02-28T04:00:13.333Z,1.45
2019-02-28T04:02:42.360Z,1.30
2019-02-28T04:05:11.389Z,1.19
2019-02-28T04:07:40.436Z,1.01
2019-02-28T04:10:09.925Z,0.93
2019-02-28T04:12:44.947Z,0.94
2019-02-28T04:15:11.440Z,1.25
2019-02-28T04:17:40.300Z,1.25
2019-02-28T04:20:09.401Z,1.33
2019-02-28T04:22:38.290Z,1.22
2019-02-28T04:25:07.588Z,1.05
2019-02-28T04:27:40.504Z,0.92
2019-02-28T04:30:08.393Z,0.93
2019-02-28T04:32:37.494Z,0.88
2019-02-28T04:35:06.524Z,0.81
2019-02-28T04:37:35.547Z,0.87
2019-02-28T04:40:06.454Z,0.99
2019-02-28T04:42:36.632Z,0.97
2019-02-28T04:45:07.546Z,1.36
2019-02-28T04:47:37.293Z,1.59
2019-02-28T04:50:07.518Z,1.66
2019-02-28T04:52:36.479Z,1.48
2019-02-28T04:55:05.703Z,1.11
2019-02-28T04:57:34.670Z,0.85
2019-02-28T05:00:05.883Z,0.70
2019-02-28T05:02:34.431Z,0.64
2019-02-28T05:05:03.356Z,0.64
2019-02-28T05:07:32.345Z,0.56
2019-02-28T05:10:01.312Z,0.48
2019-02-28T05:12:30.311Z,0.58
2019-02-28T05:15:02.140Z,0.72
2019-02-28T05:17:29.753Z,0.69
2019-02-28T05:19:58.683Z,0.61
2019-02-28T05:22:27.741Z,0.46
2019-02-28T05:24:57.561Z,0.48
2019-02-28T05:27:26.344Z,0.61
2019-02-28T05:29:55.342Z,0.65
2019-02-28T05:32:24.291Z,0.66
2019-02-28T05:34:53.162Z,0.72
2019-02-28T05:37:22.010Z,0.67
2019-02-28T05:39:50.858Z,0.60
2019-02-28T05:42:20.231Z,0.51
2019-02-28T05:44:50.536Z,0.54
2019-02-28T05:47:19.493Z,0.62
2019-02-28T05:49:48.351Z,0.81
2019-02-28T05:52:17.181Z,0.77
2019-02-28T05:54:47.191Z,0.82
2019-02-28T05:57:17.068Z,0.81
2019-02-28T05:59:45.967Z,0.80
2019-02-28T06:02:14.800Z,1.06
2019-02-28T06:04:43.700Z,0.99
2019-02-28T06:07:12.658Z,1.13
2019-02-28T06:09:41.543Z,0.78
2019-02-28T06:12:10.468Z,0.58
2019-02-28T06:14:39.337Z,0.37
2019-02-28T06:17:08.145Z,0.34
2019-02-28T06:19:40.191Z,0.43
2019-02-28T06:22:07.617Z,0.44
2019-02-28T06:24:36.521Z,0.53
2019-02-28T06:27:06.639Z,0.65
2019-02-28T06:29:36.700Z,1.04
2019-02-28T06:32:06.400Z,1.59
2019-02-28T06:34:35.329Z,1.67
2019-02-28T06:37:04.532Z,1.64
2019-02-28T06:39:33.385Z,1.64
2019-02-28T06:42:02.401Z,1.56
2019-02-28T06:44:31.404Z,1.52
2019-02-28T06:47:00.275Z,1.52
2019-02-28T06:49:29.083Z,1.66
2019-02-28T06:51:58.116Z,1.65
2019-02-28T06:54:27.114Z,1.64
2019-02-28T06:56:56.015Z,1.66
2019-02-28T06:59:24.823Z,1.69
2019-02-28T07:01:57.469Z,1.77
2019-02-28T07:04:24.664Z,1.84
2019-02-28T07:06:53.491Z,1.90
2019-02-28T07:09:22.355Z,1.98
2019-02-28T07:11:54.694Z,2.36
2019-02-28T07:14:22.323Z,2.85
2019-02-28T07:16:51.303Z,3.01
2019-02-28T07:19:20.297Z,2.96
2019-02-28T07:21:49.332Z,3.10
2019-02-28T07:24:18.388Z,3.35
2019-02-28T07:26:48.267Z,3.49
2019-02-28T07:29:17.339Z,3.54
2019-02-28T07:31:46.245Z,3.46
2019-02-28T07:34:19.401Z,3.45
2019-02-28T07:36:45.919Z,3.46
2019-02-28T07:39:14.837Z,3.54
2019-02-28T07:41:43.766Z,3.80
2019-02-28T07:44:12.814Z,4.09
2019-02-28T07:46:43.203Z,4.16
2019-02-28T07:49:12.467Z,4.29
2019-02-28T07:51:41.269Z,4.37
2019-02-28T07:54:12.651Z,4.54
2019-02-28T07:56:43.306Z,4.55
2019-02-28T07:59:11.706Z,4.52
2019-02-28T08:01:40.663Z,4.65
2019-02-28T08:04:09.640Z,4.76
2019-02-28T08:06:39.409Z,4.88
2019-02-28T08:09:21.084Z,4.94
2019-02-28T08:11:51.636Z,5.04
2019-02-28T08:14:20.748Z,5.14
2019-02-28T08:16:49.665Z,5.35
2019-02-28T08:19:18.586Z,5.35
2019-02-28T08:21:50.201Z,5.84
2019-02-28T08:24:18.222Z,6.07
2019-02-28T08:26:47.178Z,6.18
2019-02-28T08:29:16.145Z,6.08
2019-02-28T08:31:45.097Z,6.18
2019-02-28T08:34:13.892Z,6.22
2019-02-28T08:36:43.786Z,6.28
2019-02-28T08:39:16.960Z,6.36
2019-02-28T08:41:46.002Z,6.50
2019-02-28T08:44:14.948Z,6.62
2019-02-28T08:46:46.475Z,6.70
2019-02-28T08:49:14.577Z,6.80
2019-02-28T08:51:43.485Z,6.93
2019-02-28T08:54:12.467Z,7.19
2019-02-28T08:56:41.714Z,7.30
2019-02-28T08:59:11.975Z,7.34
2019-02-28T09:01:44.053Z,7.59
2019-02-28T09:04:12.284Z,7.58
2019-02-28T09:06:41.707Z,7.75
2019-02-28T09:09:12.047Z,7.79
2019-02-28T09:11:41.079Z,7.88
2019-02-28T09:14:10.448Z,8.06
2019-02-28T09:16:39.778Z,8.18
2019-02-28T09:19:09.377Z,8.36
2019-02-28T09:21:41.265Z,8.55
2019-02-28T09:24:12.553Z,8.75
2019-02-28T09:26:42.214Z,8.95
2019-02-28T09:29:11.060Z,9.20
2019-02-28T09:31:40.000Z,9.38
2019-02-28T09:34:09.348Z,9.44
2019-02-28T09:36:38.396Z,9.46
2019-02-28T09:39:08.205Z,9.65
2019-02-28T09:41:40.343Z,9.79
2019-02-28T09:44:07.689Z,10.02
2019-02-28T09:46:36.588Z,10.05
2019-02-28T09:49:05.800Z,10.41
2019-02-28T09:51:34.759Z,10.65
2019-02-28T09:54:03.667Z,10.89
2019-02-28T09:56:33.161Z,11.07
2019-02-28T09:59:03.106Z,11.17
2019-02-28T10:01:32.846Z,11.40
2019-02-28T10:04:01.855Z,11.57
2019-02-28T10:06:30.681Z,11.99
2019-02-28T10:08:59.602Z,12.37
2019-02-28T10:11:31.729Z,12.73
2019-02-28T10:13:59.302Z,12.88
2019-02-28T10:16:28.182Z,13.03
2019-02-28T10:18:57.384Z,12.97
2019-02-28T10:21:26.232Z,13.10
2019-02-28T10:23:56.895Z,13.15
2019-02-28T10:26:25.935Z,13.38
2019-02-28T10:28:54.952Z,13.60
2019-02-28T10:31:34.780Z,13.54
2019-02-28T10:33:54.456Z,13.86
2019-02-28T10:36:23.285Z,13.92
2019-02-28T10:38:52.216Z,13.95
2019-02-28T10:41:24.142Z,14.11
2019-02-28T10:43:55.839Z,14.09
2019-02-28T10:46:24.107Z,14.01
2019-02-28T10:48:53.020Z,13.99
2019-02-28T10:51:22.044Z,13.99
2019-02-28T10:53:52.537Z,14.13
2019-02-28T10:56:21.661Z,14.35
2019-02-28T10:58:51.065Z,14.46
2019-02-28T11:01:20.554Z,14.41
2019-02-28T11:03:50.788Z,14.38
2019-02-28T11:06:19.723Z,14.46
2019-02-28T11:08:48.634Z,14.48
2019-02-28T11:11:17.653Z,14.47
2019-02-28T11:13:46.957Z,14.65
2019-02-28T11:16:16.164Z,14.84
2019-02-28T11:18:45.019Z,15.09
2019-02-28T11:21:15.490Z,15.11
2019-02-28T11:23:46.547Z,15.08
2019-02-28T11:26:15.320Z,15.29
2019-02-28T11:28:44.321Z,15.45
2019-02-28T11:31:13.366Z,15.62
2019-02-28T11:33:42.381Z,15.60
2019-02-28T11:36:11.297Z,15.66
2019-02-28T11:38:40.773Z,15.50
2019-02-28T11:41:09.814Z,15.55
2019-02-28T11:43:38.807Z,15.61
2019-02-28T11:46:09.208Z,15.71
2019-02-28T11:48:38.166Z,15.76
2019-02-28T11:51:07.091Z,16.02
2019-02-28T11:53:39.309Z,16.16
2019-02-28T11:56:06.712Z,16.03
2019-02-28T11:58:35.692Z,15.96
2019-02-28T12:01:10.245Z,16.08
2019-02-28T12:03:36.601Z,16.20
2019-02-28T12:06:06.889Z,16.33
2019-02-28T12:08:36.002Z,16.37
2019-02-28T12:11:05.223Z,16.48
2019-02-28T12:13:34.172Z,16.42
2019-02-28T12:16:03.173Z,16.36
2019-02-28T12:18:32.132Z,16.49
2019-02-28T12:21:02.069Z,16.60
2019-02-28T12:23:31.948Z,16.56
2019-02-28T12:26:00.959Z,16.61
2019-02-28T12:28:31.618Z,16.67
2019-02-28T12:31:02.434Z,16.73
2019-02-28T12:33:31.265Z,16.75
2019-02-28T12:36:00.311Z,16.89
2019-02-28T12:38:29.290Z,17.09
2019-02-28T12:40:58.318Z,17.02
2019-02-28T12:43:27.243Z,17.09
2019-02-28T12:45:56.801Z,17.26
2019-02-28T12:48:27.309Z,17.37
2019-02-28T12:50:56.309Z,17.22
2019-02-28T12:53:25.504Z,17.19
2019-02-28T12:55:54.529Z,17.32
2019-02-28T12:58:23.502Z,17.33
2019-02-28T13:00:56.332Z,17.35
2019-02-28T13:03:23.222Z,17.55
2019-02-28T13:05:52.116Z,17.70
2019-02-28T13:08:20.930Z,17.91
2019-02-28T13:10:49.889Z,17.87
2019-02-28T13:13:21.723Z,17.79
2019-02-28T13:15:49.972Z,17.84
2019-02-28T13:18:19.022Z,17.96
2019-02-28T13:20:48.007Z,18.08
2019-02-28T13:23:17.263Z,18.00
2019-02-28T13:25:46.420Z,17.86
2019-02-28T13:28:17.806Z,17.83
2019-02-28T13:30:50.399Z,17.80
2019-02-28T13:33:16.903Z,17.64
2019-02-28T13:35:47.610Z,17.88
2019-02-28T13:38:18.980Z,17.76
2019-02-28T13:40:47.321Z,17.74
2019-02-28T13:43:21.067Z,17.83
2019-02-28T13:45:50.783Z,18.12
2019-02-28T13:48:25.680Z,18.69
2019-02-28T13:50:48.790Z,18.78
2019-02-28T13:53:18.717Z,19.07
2019-02-28T13:55:47.920Z,19.56
2019-02-28T13:58:17.606Z,19.56
2019-02-28T14:00:48.012Z,19.24
2019-02-28T14:03:17.264Z,19.24
2019-02-28T14:05:46.279Z,18.90
2019-02-28T14:08:15.324Z,18.95
2019-02-28T14:10:44.543Z,19.03
2019-02-28T14:13:13.404Z,19.16
2019-02-28T14:15:43.520Z,19.56
2019-02-28T14:18:12.895Z,19.36
2019-02-28T14:20:42.080Z,19.59
2019-02-28T14:23:11.097Z,19.39
2019-02-28T14:25:41.280Z,18.97
2019-02-28T14:28:10.578Z,18.71
2019-02-28T14:30:39.566Z,18.81
2019-02-28T14:33:08.714Z,18.51
2019-02-28T14:35:38.779Z,18.78
2019-02-28T14:38:07.836Z,18.36
2019-02-28T14:40:36.827Z,18.69
2019-02-28T14:43:05.933Z,18.96
2019-02-28T14:45:35.252Z,18.90
2019-02-28T14:48:05.157Z,18.92
2019-02-28T14:50:34.614Z,18.64
2019-02-28T14:53:03.633Z,18.62
2019-02-28T14:55:33.692Z,18.42
2019-02-28T14:58:02.670Z,18.32
2019-02-28T15:00:32.072Z,18.24
2019-02-28T15:03:02.814Z,18.44
2019-02-28T15:05:32.141Z,18.33
2019-02-28T15:08:01.942Z,18.33
2019-02-28T15:10:34.231Z,18.33
2019-02-28T15:13:01.955Z,18.38
2019-02-28T15:15:31.044Z,18.29
2019-02-28T15:17:59.995Z,18.23
2019-02-28T15:20:32.824Z,18.03
2019-02-28T15:22:59.827Z,18.01
2019-02-28T15:25:28.811Z,18.13
2019-02-28T15:27:57.739Z,18.23
2019-02-28T15:30:30.508Z,18.21
2019-02-28T15:32:59.352Z,18.17
2019-02-28T15:35:28.335Z,18.09
2019-02-28T15:37:57.362Z,18.17
2019-02-28T15:40:28.483Z,18.20
2019-02-28T15:42:57.587Z,18.24
2019-02-28T15:45:27.757Z,18.12
2019-02-28T15:47:59.180Z,17.75
2019-02-28T15:50:27.870Z,17.65
2019-02-28T15:52:57.107Z,17.55
2019-02-28T15:55:30.103Z,17.44
2019-02-28T15:57:59.139Z,17.30
2019-02-28T16:00:29.612Z,17.07
2019-02-28T16:02:58.874Z,16.90
2019-02-28T16:05:27.969Z,16.69
2019-02-28T16:07:57.371Z,16.30
2019-02-28T16:10:28.520Z,16.09
2019-02-28T16:12:59.032Z,15.90
2019-02-28T16:15:28.294Z,15.71
2019-02-28T16:17:57.253Z,15.45
2019-02-28T16:20:28.631Z,15.27
2019-02-28T16:22:56.875Z,15.14
2019-02-28T16:25:28.217Z,14.88
2019-02-28T16:27:58.029Z,14.68
2019-02-28T16:30:28.809Z,14.52
2019-02-28T16:32:57.730Z,14.34
2019-02-28T16:35:28.889Z,14.12
2019-02-28T16:37:57.511Z,13.98
2019-02-28T16:40:27.202Z,13.73
2019-02-28T16:42:56.421Z,13.48
2019-02-28T16:45:29.084Z,13.24
2019-02-28T16:47:59.535Z,13.13
2019-02-28T16:50:28.965Z,13.02
2019-02-28T16:52:57.897Z,12.97
2019-02-28T16:55:27.503Z,12.93
2019-02-28T17:04:54.207Z,12.73
2019-02-28T17:07:23.187Z,12.72
2019-02-28T17:09:52.117Z,12.67
2019-02-28T17:12:38.729Z,12.58
2019-02-28T17:15:14.020Z,12.54
2019-02-28T17:17:49.200Z,12.47
2019-02-28T17:20:18.071Z,12.44
2019-02-28T17:22:46.918Z,12.41
2019-02-28T17:25:22.876Z,12.38
2019-02-28T17:27:59.993Z,12.33
2019-02-28T17:31:00.255Z,12.26
2019-02-28T17:33:29.628Z,12.23
2019-02-28T17:35:58.490Z,12.18
2019-02-28T17:38:27.489Z,12.17
2019-02-28T17:40:58.821Z,12.19
2019-02-28T17:43:27.496Z,12.22
2019-02-28T17:45:56.486Z,12.18
2019-02-28T17:49:06.748Z,12.22
2019-02-28T17:51:43.453Z,12.16
2019-02-28T17:54:47.265Z,12.14
2019-02-28T17:57:48.676Z,12.11
2019-02-28T18:00:44.770Z,12.06
2019-02-28T18:03:44.983Z,11.99
2019-02-28T18:07:20.040Z,11.91
2019-02-28T18:10:20.948Z,11.89
2019-02-28T18:13:23.627Z,11.79
2019-02-28T18:16:24.365Z,11.77
2019-02-28T18:19:46.633Z,11.70
2019-02-28T18:22:38.754Z,11.70
2019-02-28T18:25:44.993Z,11.67
2019-02-28T18:28:58.087Z,11.62
2019-02-28T18:31:27.236Z,11.58
2019-02-28T18:34:00.379Z,11.55
2019-02-28T18:36:30.995Z,11.56
2019-02-28T18:39:00.029Z,11.55
2019-02-28T18:41:28.956Z,11.51
2019-02-28T18:43:59.979Z,11.52
2019-02-28T18:46:29.675Z,11.47
2019-02-28T18:48:59.225Z,11.45
2019-02-28T18:51:28.362Z,11.42
2019-02-28T18:53:57.328Z,11.41
2019-02-28T18:56:26.308Z,11.37
2019-02-28T18:58:55.321Z,11.32
2019-02-28T19:01:24.328Z,11.31
2019-02-28T19:03:53.209Z,11.30
2019-02-28T19:06:22.176Z,11.12
2019-02-28T19:08:50.991Z,11.22
2019-02-28T19:11:19.895Z,11.17
2019-02-28T19:13:48.760Z,11.09
2019-02-28T19:16:17.973Z,11.05
2019-02-28T19:18:47.098Z,10.97
2019-02-28T19:21:16.101Z,10.97
2019-02-28T19:23:44.904Z,10.94
2019-02-28T19:26:13.693Z,10.96
2019-02-28T19:28:42.600Z,10.91
2019-02-28T19:31:11.572Z,10.85
2019-02-28T19:33:40.582Z,10.85
2019-02-28T19:36:09.542Z,10.82
2019-02-28T19:38:38.471Z,10.80
2019-02-28T19:41:07.534Z,10.78
2019-02-28T19:43:36.359Z,10.80
2019-02-28T19:46:05.504Z,10.81
2019-02-28T19:48:36.980Z,10.82
2019-02-28T19:51:05.982Z,10.76
2019-02-28T19:53:35.729Z,10.72
2019-02-28T19:56:04.761Z,10.70
2019-02-28T19:58:33.613Z,10.72
2019-02-28T20:01:02.643Z,10.67
2019-02-28T20:03:31.645Z,10.68
2019-02-28T20:06:00.681Z,10.66
2019-02-28T20:08:29.648Z,10.70
2019-02-28T20:10:58.671Z,10.69
2019-02-28T20:13:27.611Z,10.67
2019-02-28T20:15:56.645Z,10.60
2019-02-28T20:18:25.550Z,10.56
2019-02-28T20:20:54.476Z,10.53
2019-02-28T20:23:24.960Z,10.50
2019-02-28T20:25:54.022Z,10.46
2019-02-28T20:28:22.901Z,10.48
2019-02-28T20:30:51.925Z,10.42
2019-02-28T20:33:20.857Z,10.42
2019-02-28T20:35:49.837Z,10.43
2019-02-28T20:38:18.816Z,10.43
2019-02-28T20:40:47.732Z,10.45
2019-02-28T20:43:16.694Z,10.44
2019-02-28T20:45:45.718Z,10.47
2019-02-28T20:48:14.902Z,10.49
2019-02-28T20:50:43.918Z,10.50
2019-02-28T20:53:12.874Z,10.45
2019-02-28T20:55:41.863Z,10.43
2019-02-28T20:58:10.776Z,10.42
2019-02-28T21:00:39.826Z,10.39
2019-02-28T21:03:08.851Z,10.37
2019-02-28T21:05:37.767Z,10.38
2019-02-28T21:08:06.796Z,10.33
2019-02-28T21:10:35.772Z,10.41
2019-02-28T21:13:05.032Z,10.35
2019-02-28T21:15:33.941Z,10.28
2019-02-28T21:18:02.862Z,10.28
2019-02-28T21:20:31.799Z,10.22
2019-02-28T21:23:00.794Z,10.18
2019-02-28T21:25:29.613Z,10.18
2019-02-28T21:27:58.538Z,10.16
2019-02-28T21:30:27.599Z,10.10
2019-02-28T21:32:56.456Z,10.11
2019-02-28T21:35:27.157Z,10.07
2019-02-28T21:37:56.090Z,10.04
2019-02-28T21:40:25.453Z,10.08
2019-02-28T21:42:54.443Z,9.97
2019-02-28T21:45:23.436Z,10.10
2019-02-28T21:47:53.327Z,10.18
2019-02-28T21:50:22.378Z,10.12
2019-02-28T21:52:51.356Z,10.02
2019-02-28T21:55:20.372Z,9.96
2019-02-28T21:57:49.247Z,10.15
2019-02-28T22:00:21.440Z,10.10
2019-02-28T22:02:50.366Z,9.97
2019-02-28T22:05:19.438Z,10.09
2019-02-28T22:07:48.549Z,9.99
2019-02-28T22:10:17.614Z,9.78
2019-02-28T22:12:46.731Z,9.87
2019-02-28T22:15:16.842Z,9.87
2019-02-28T22:17:46.005Z,9.85
2019-02-28T22:20:15.457Z,9.89
2019-02-28T22:22:44.559Z,9.90
2019-02-28T22:25:13.863Z,9.95
2019-02-28T22:27:42.886Z,9.89
2019-02-28T22:30:33.795Z,9.92
2019-02-28T22:33:04.906Z,9.91
2019-02-28T22:35:43.377Z,9.91
2019-02-28T22:38:12.287Z,9.93
2019-02-28T22:40:41.397Z,9.95
2019-02-28T22:43:10.267Z,9.92
2019-02-28T22:45:39.267Z,9.98
2019-02-28T22:48:08.148Z,10.06
2019-02-28T22:50:36.960Z,10.01
2019-02-28T22:53:05.910Z,9.97
2019-02-28T22:55:34.879Z,10.00
2019-02-28T22:58:08.654Z,9.99
2019-02-28T23:00:52.338Z,10.02
2019-02-28T23:03:21.370Z,10.04
2019-02-28T23:05:50.316Z,10.01
2019-02-28T23:08:19.303Z,9.97
2019-02-28T23:10:48.234Z,9.90
2019-02-28T23:13:17.109Z,9.93
2019-02-28T23:15:46.124Z,9.87
2019-02-28T23:18:15.107Z,9.72
2019-02-28T23:20:44.607Z,9.60
2019-02-28T23:23:13.569Z,9.57
2019-02-28T23:25:42.551Z,9.47
2019-02-28T23:28:13.971Z,9.47
2019-02-28T23:31:16.644Z,9.38
2019-02-28T23:33:45.587Z,9.29
2019-02-28T23:36:21.690Z,9.22
2019-02-28T23:38:50.562Z,9.18
2019-02-28T23:41:19.452Z,9.15
2019-02-28T23:43:48.359Z,9.19
2019-02-28T23:46:17.391Z,9.20
2019-02-28T23:48:46.387Z,9.17
2019-02-28T23:51:15.234Z,9.14
2019-02-28T23:53:44.057Z,9.12
2019-02-28T23:56:12.972Z,9.11
2019-02-28T23:58:41.966Z,9.20
